createdAt,value
2019-02-25T00:03:51.769Z,1.83
2019-02-25T00:07:57.211Z,1.83
2019-02-25T00:12:02.680Z,1.76
2019-02-25T00:16:09.528Z,1.76
2019-02-25T00:20:15.102Z,1.56
2019-02-25T00:24:20.453Z,1.47
2019-02-25T00:28:25.891Z,1.46
2019-02-25T00:32:31.336Z,1.42
2019-02-25T00:36:36.834Z,1.35
2019-02-25T00:40:42.349Z,1.46
2019-02-25T00:44:47.845Z,1.35
2019-02-25T00:48:53.275Z,1.28
2019-02-25T00:52:58.902Z,1.25
2019-02-25T00:57:04.346Z,1.24
2019-02-25T01:01:09.786Z,1.13
2019-02-25T01:05:16.445Z,0.99
2019-02-25T01:09:21.895Z,0.99
2019-02-25T01:13:27.349Z,1.04
2019-02-25T01:17:32.735Z,1.07
2019-02-25T01:21:38.581Z,1.03
2019-02-25T01:25:44.099Z,1.05
2019-02-25T01:29:49.852Z,1.08
2019-02-25T01:33:55.655Z,1.09
2019-02-25T01:38:01.215Z,1.08
2019-02-25T01:42:06.774Z,1.02
2019-02-25T01:46:12.167Z,1.02
2019-02-25T01:50:17.673Z,0.95
2019-02-25T01:54:23.118Z,0.92
2019-02-25T01:58:28.559Z,0.76
2019-02-25T02:02:33.870Z,0.79
2019-02-25T02:06:39.601Z,0.77
2019-02-25T02:10:45.111Z,0.76
2019-02-25T02:14:50.634Z,0.69
2019-02-25T02:18:55.855Z,0.63
2019-02-25T02:23:01.604Z,0.54
2019-02-25T02:27:07.491Z,0.62
2019-02-25T02:31:12.910Z,0.62
2019-02-25T02:35:18.965Z,0.63
2019-02-25T02:39:24.547Z,0.50
2019-02-25T02:43:30.099Z,0.44
2019-02-25T02:48:04.455Z,0.45
2019-02-25T02:52:10.192Z,0.51
2019-02-25T02:56:15.632Z,0.50
2019-02-25T03:00:21.308Z,0.54
2019-02-25T03:04:26.666Z,0.56
2019-02-25T03:08:32.396Z,0.50
2019-02-25T03:12:38.139Z,0.43
2019-02-25T03:16:43.803Z,0.46
2019-02-25T03:20:49.552Z,0.63
2019-02-25T03:24:55.057Z,0.57
2019-02-25T03:29:00.568Z,0.53
2019-02-25T03:33:06.059Z,0.50
2019-02-25T03:37:11.712Z,0.56
2019-02-25T03:41:17.198Z,0.46
2019-02-25T03:45:23.034Z,0.54
2019-02-25T03:49:28.412Z,0.46
2019-02-25T03:53:34.129Z,0.36
2019-02-25T03:57:40.226Z,0.42
2019-02-25T04:01:45.683Z,0.31
2019-02-25T04:05:51.118Z,0.44
2019-02-25T04:09:56.914Z,0.40
2019-02-25T04:14:02.334Z,0.27
2019-02-25T04:18:07.928Z,0.17
2019-02-25T04:22:13.353Z,0.26
2019-02-25T04:26:18.991Z,0.22
2019-02-25T04:30:24.454Z,0.15
2019-02-25T04:34:29.963Z,0.13
2019-02-25T04:38:35.408Z,0.14
2019-02-25T04:42:41.145Z,0.21
2019-02-25T04:46:46.694Z,0.05
2019-02-25T04:50:52.404Z,0.03
2019-02-25T04:54:57.931Z,-0.05
2019-02-25T04:59:03.349Z,-0.04
2019-02-25T05:03:09.209Z,0.01
2019-02-25T05:07:14.672Z,0.10
2019-02-25T05:11:21.797Z,-0.07
2019-02-25T05:15:27.938Z,0.02
2019-02-25T05:19:33.698Z,-0.05
2019-02-25T05:23:39.424Z,-0.07
2019-02-25T05:27:44.934Z,-0.09
2019-02-25T05:31:50.416Z,-0.04
2019-02-25T05:35:55.876Z,-0.08
2019-02-25T05:40:01.318Z,-0.06
2019-02-25T05:44:08.558Z,-0.13
2019-02-25T05:48:14.667Z,-0.21
2019-02-25T05:52:20.211Z,-0.04
2019-02-25T05:56:25.826Z,-0.21
2019-02-25T06:00:32.235Z,0.11
2019-02-25T06:04:37.811Z,-0.06
2019-02-25T06:08:43.251Z,-0.23
2019-02-25T06:12:48.695Z,-0.12
2019-02-25T06:16:54.416Z,-0.30
2019-02-25T06:21:01.904Z,-0.25
2019-02-25T06:25:08.084Z,-0.10
2019-02-25T06:29:13.654Z,-0.03
2019-02-25T06:33:19.194Z,-0.05
2019-02-25T06:37:25.201Z,0.26
2019-02-25T06:41:30.801Z,0.37
2019-02-25T06:45:36.392Z,0.37
2019-02-25T06:49:42.479Z,0.31
2019-02-25T06:53:47.965Z,0.48
2019-02-25T06:57:53.728Z,0.57
2019-02-25T07:01:59.097Z,0.52
2019-02-25T07:06:24.544Z,0.53
2019-02-25T07:10:52.429Z,0.46
2019-02-25T07:15:04.879Z,0.54
2019-02-25T07:19:30.281Z,0.82
2019-02-25T07:24:01.154Z,0.79
2019-02-25T07:28:24.494Z,1.09
2019-02-25T07:32:59.543Z,1.57
2019-02-25T07:37:30.047Z,2.03
2019-02-25T07:41:44.793Z,2.35
2019-02-25T07:46:07.809Z,3.35
2019-02-25T07:50:47.209Z,3.71
2019-02-25T07:55:19.574Z,3.78
2019-02-25T07:59:43.866Z,4.66
2019-02-25T08:03:55.127Z,5.10
2019-02-25T08:08:12.175Z,5.76
2019-02-25T08:12:23.357Z,5.50
2019-02-25T08:16:56.885Z,6.13
2019-02-25T08:21:13.426Z,6.64
2019-02-25T08:25:47.645Z,6.96
2019-02-25T08:30:09.346Z,6.58
2019-02-25T08:34:34.198Z,6.78
2019-02-25T08:38:52.197Z,7.61
2019-02-25T08:43:10.466Z,7.79
2019-02-25T08:47:20.403Z,7.50
2019-02-25T08:51:26.969Z,8.49
2019-02-25T08:55:32.789Z,7.84
2019-02-25T08:59:38.512Z,8.51
2019-02-25T09:03:45.026Z,8.98
2019-02-25T09:07:50.464Z,9.65
2019-02-25T09:11:56.031Z,9.41
2019-02-25T09:16:01.523Z,9.93
2019-02-25T09:20:07.016Z,10.12
2019-02-25T09:24:12.437Z,9.47
2019-02-25T09:28:17.885Z,9.73
2019-02-25T09:32:23.338Z,10.66
2019-02-25T09:36:28.776Z,11.00
2019-02-25T09:40:34.234Z,11.17
2019-02-25T09:44:39.579Z,11.28
2019-02-25T09:48:45.317Z,11.27
2019-02-25T09:52:51.016Z,11.88
2019-02-25T09:56:56.750Z,12.15
2019-02-25T10:01:02.479Z,12.61
2019-02-25T10:05:08.519Z,12.06
2019-02-25T10:09:13.971Z,12.51
2019-02-25T10:13:19.842Z,12.47
2019-02-25T10:17:25.274Z,12.46
2019-02-25T10:21:31.011Z,13.31
2019-02-25T10:25:36.755Z,13.08
2019-02-25T10:29:42.077Z,13.06
2019-02-25T10:33:50.928Z,13.17
2019-02-25T10:37:56.719Z,13.54
2019-02-25T10:42:02.307Z,14.13
2019-02-25T10:46:09.514Z,14.15
2019-02-25T10:50:15.138Z,14.04
2019-02-25T10:54:21.262Z,14.20
2019-02-25T10:58:30.720Z,15.01
2019-02-25T11:02:43.878Z,15.10
2019-02-25T11:06:42.281Z,15.21
2019-02-25T11:11:06.648Z,15.44
2019-02-25T11:15:13.838Z,14.50
2019-02-25T11:19:19.746Z,14.18
2019-02-25T11:23:25.264Z,14.42
2019-02-25T11:27:33.073Z,15.18
2019-02-25T11:31:38.281Z,15.41
2019-02-25T11:35:45.808Z,15.62
2019-02-25T11:39:52.595Z,15.95
2019-02-25T11:43:58.683Z,15.52
2019-02-25T11:48:04.183Z,15.76
2019-02-25T11:52:09.873Z,16.34
2019-02-25T11:56:15.500Z,16.35
2019-02-25T12:00:22.344Z,16.31
2019-02-25T12:04:28.143Z,17.13
2019-02-25T12:08:33.546Z,15.91
2019-02-25T12:12:38.993Z,16.99
2019-02-25T12:16:44.729Z,17.63
2019-02-25T12:20:50.196Z,17.23
2019-02-25T12:24:55.592Z,18.41
2019-02-25T12:29:10.374Z,18.80
2019-02-25T12:33:08.499Z,17.30
2019-02-25T12:37:13.964Z,19.31
2019-02-25T12:41:19.863Z,19.74
2019-02-25T12:45:25.319Z,19.74
2019-02-25T12:49:31.223Z,21.96
2019-02-25T12:53:37.885Z,21.54
2019-02-25T12:57:43.398Z,21.21
2019-02-25T13:01:49.000Z,22.10
2019-02-25T13:05:54.653Z,23.26
2019-02-25T13:10:00.304Z,20.44
2019-02-25T13:14:05.825Z,23.45
2019-02-25T13:18:11.244Z,21.24
2019-02-25T13:22:16.626Z,22.49
2019-02-25T13:26:22.367Z,22.45
2019-02-25T13:30:27.867Z,22.15
2019-02-25T13:34:33.269Z,21.40
2019-02-25T13:38:38.987Z,20.91
2019-02-25T13:42:44.489Z,21.26
2019-02-25T13:46:50.060Z,20.30
2019-02-25T13:50:55.565Z,20.07
2019-02-25T13:55:01.154Z,19.93
2019-02-25T13:59:07.206Z,19.46
2019-02-25T14:03:12.973Z,19.86
2019-02-25T14:07:18.508Z,18.61
2019-02-25T14:11:23.872Z,19.02
2019-02-25T14:15:29.330Z,18.88
2019-02-25T14:19:34.754Z,19.18
2019-02-25T14:23:40.668Z,19.48
2019-02-25T14:27:46.127Z,21.06
2019-02-25T14:31:52.480Z,20.21
2019-02-25T14:35:58.223Z,20.19
2019-02-25T14:40:05.978Z,21.28
2019-02-25T14:44:11.302Z,22.32
2019-02-25T14:48:20.429Z,23.11
2019-02-25T14:52:26.733Z,22.74
2019-02-25T14:56:31.661Z,23.14
2019-02-25T15:00:38.228Z,22.74
2019-02-25T15:04:43.982Z,23.23
2019-02-25T15:08:49.386Z,23.45
2019-02-25T15:12:58.814Z,22.77
2019-02-25T15:17:03.868Z,22.87
2019-02-25T15:21:11.226Z,23.56
2019-02-25T15:25:17.352Z,22.57
2019-02-25T15:29:23.119Z,23.29
2019-02-25T15:33:30.016Z,22.87
2019-02-25T15:37:36.504Z,22.86
2019-02-25T15:41:43.967Z,22.58
2019-02-25T15:45:49.132Z,21.84
2019-02-25T15:49:59.752Z,21.95
2019-02-25T15:54:02.922Z,21.46
2019-02-25T15:58:08.771Z,21.60
2019-02-25T16:02:14.528Z,20.68
2019-02-25T16:06:19.982Z,20.57
2019-02-25T16:10:25.551Z,20.79
2019-02-25T16:14:31.010Z,20.34
2019-02-25T16:18:36.573Z,18.99
2019-02-25T16:22:42.654Z,18.87
2019-02-25T16:26:48.857Z,18.66
2019-02-25T16:30:54.435Z,18.23
2019-02-25T16:35:00.274Z,17.43
2019-02-25T16:39:09.634Z,17.04
2019-02-25T16:43:15.623Z,17.16
2019-02-25T16:47:31.911Z,16.20
2019-02-25T16:51:30.235Z,16.63
2019-02-25T16:55:35.773Z,15.83
2019-02-25T16:59:41.269Z,15.74
2019-02-25T17:03:48.215Z,15.16
2019-02-25T17:07:55.989Z,15.09
2019-02-25T17:12:02.871Z,14.70
2019-02-25T17:16:17.883Z,14.49
2019-02-25T17:20:16.765Z,14.29
2019-02-25T17:24:24.009Z,13.93
2019-02-25T17:28:29.588Z,13.71
2019-02-25T17:32:35.055Z,13.40
2019-02-25T17:36:40.476Z,13.21
2019-02-25T17:40:45.907Z,12.96
2019-02-25T17:44:53.314Z,12.36
2019-02-25T17:48:58.707Z,12.45
2019-02-25T17:53:05.124Z,12.33
2019-02-25T17:57:13.676Z,12.08
2019-02-25T18:01:21.007Z,11.68
2019-02-25T18:05:26.769Z,11.55
2019-02-25T18:09:32.310Z,11.41
2019-02-25T18:13:38.095Z,11.25
2019-02-25T18:17:44.870Z,10.99
2019-02-25T18:21:51.151Z,10.75
2019-02-25T18:25:58.687Z,10.55
2019-02-25T18:30:05.415Z,10.47
2019-02-25T18:34:12.924Z,10.13
2019-02-25T18:38:18.894Z,10.04
2019-02-25T18:42:24.387Z,9.83
2019-02-25T18:46:30.477Z,9.73
2019-02-25T18:50:36.341Z,9.51
2019-02-25T18:54:43.370Z,9.44
2019-02-25T18:58:49.512Z,9.26
2019-02-25T19:02:56.173Z,9.16
2019-02-25T19:07:03.664Z,9.00
2019-02-25T19:11:13.043Z,8.71
2019-02-25T19:15:17.608Z,8.80
2019-02-25T19:19:23.337Z,8.63
2019-02-25T19:23:31.270Z,8.41
2019-02-25T19:27:36.513Z,8.30
2019-02-25T19:31:42.925Z,8.25
2019-02-25T19:35:48.599Z,8.12
2019-02-25T19:39:54.163Z,7.99
2019-02-25T19:44:03.287Z,7.96
2019-02-25T19:48:07.279Z,7.83
2019-02-25T19:52:14.437Z,7.68
2019-02-25T19:56:20.871Z,7.75
2019-02-25T20:00:28.271Z,7.49
2019-02-25T20:04:35.976Z,7.25
2019-02-25T20:08:42.100Z,7.26
2019-02-25T20:12:53.125Z,7.17
2019-02-25T20:16:59.437Z,7.10
2019-02-25T20:21:06.461Z,6.94
2019-02-25T20:25:14.471Z,6.86
2019-02-25T20:29:19.891Z,6.75
2019-02-25T20:33:30.460Z,6.51
2019-02-25T20:37:33.889Z,6.57
2019-02-25T20:41:40.064Z,6.47
2019-02-25T20:45:45.503Z,6.30
2019-02-25T20:49:53.698Z,6.29
2019-02-25T20:53:59.778Z,6.20
2019-02-25T20:58:05.329Z,6.24
2019-02-25T21:02:15.805Z,5.86
2019-02-25T21:06:21.095Z,5.81
2019-02-25T21:10:32.756Z,5.83
2019-02-25T21:14:42.714Z,5.58
2019-02-25T21:18:52.925Z,5.57
2019-02-25T21:23:02.851Z,5.44
2019-02-25T21:27:06.425Z,5.36
2019-02-25T21:31:16.196Z,5.19
2019-02-25T21:35:23.534Z,5.07
2019-02-25T21:39:27.943Z,5.05
2019-02-25T21:43:35.468Z,4.82
2019-02-25T21:47:41.023Z,4.82
2019-02-25T21:51:48.015Z,4.69
2019-02-25T21:55:55.379Z,4.59
2019-02-25T22:00:02.987Z,4.53
2019-02-25T22:04:12.970Z,4.53
2019-02-25T22:08:26.691Z,4.31
2019-02-25T22:12:33.191Z,4.30
2019-02-25T22:16:44.007Z,4.12
2019-02-25T22:20:49.225Z,4.14
2019-02-25T22:24:54.481Z,4.14
2019-02-25T22:29:01.751Z,3.91
2019-02-25T22:33:12.738Z,3.85
2019-02-25T22:37:16.758Z,4.05
2019-02-25T22:41:22.935Z,4.00
2019-02-25T22:45:31.454Z,3.87
2019-02-25T22:49:36.708Z,3.77
2019-02-25T22:53:42.145Z,3.70
2019-02-25T22:57:50.952Z,3.55
2019-02-25T23:01:55.013Z,3.51
2019-02-25T23:06:00.438Z,3.37
2019-02-25T23:10:08.410Z,3.31
2019-02-25T23:14:14.036Z,3.20
2019-02-25T23:18:28.032Z,3.09
2019-02-25T23:22:34.937Z,3.07
2019-02-25T23:26:41.078Z,2.96
2019-02-25T23:30:46.584Z,2.93
2019-02-25T23:34:52.759Z,2.86
2019-02-25T23:38:59.565Z,2.83
2019-02-25T23:43:07.460Z,2.98
2019-02-25T23:47:13.451Z,2.73
2019-02-25T23:51:19.563Z,2.64
2019-02-25T23:55:27.947Z,2.61
2019-02-25T23:59:34.067Z,2.61
